sensor_id;sensor_type;location;lat;lon;timestamp;P1;durP1;ratioP1;P2;durP2;ratioP2
19364;SDS011;9818;48.382;10.850;2022-11-23T01:20:28;2.87;;;1.20;;
19364;SDS011;9818;48.382;10.850;2022-11-23T01:22:56;1.60;;;1.50;;
19364;SDS011;9818;48.382;10.850;2022-11-23T01:25:25;1.90;;;1.37;;
19364;SDS011;9818;48.382;10.850;2022-11-23T01:27:53;2.23;;;1.53;;
19364;SDS011;9818;48.382;10.850;2022-11-23T01:30:22;2.90;;;1.70;;
19364;SDS011;9818;48.382;10.850;2022-11-23T01:32:51;1.60;;;1.30;;
19364;SDS011;9818;48.382;10.850;2022-11-23T01:35:20;2.47;;;1.30;;
19364;SDS011;9818;48.382;10.850;2022-11-23T01:37:51;3.13;;;1.33;;
19364;SDS011;9818;48.382;10.850;2022-11-23T01:40:20;2.63;;;1.40;;
19364;SDS011;9818;48.382;10.850;2022-11-23T01:42:54;1.87;;;1.67;;
19364;SDS011;9818;48.382;10.850;2022-11-23T01:45:34;1.73;;;1.30;;
19364;SDS011;9818;48.382;10.850;2022-11-23T01:48:07;1.73;;;1.20;;
19364;SDS011;9818;48.382;10.850;2022-11-23T01:50:40;2.13;;;1.57;;
19364;SDS011;9818;48.382;10.850;2022-11-23T01:53:14;1.67;;;1.40;;
19364;SDS011;9818;48.382;10.850;2022-11-23T01:55:43;2.23;;;1.37;;
19364;SDS011;9818;48.382;10.850;2022-11-23T01:58:15;2.90;;;1.47;;
19364;SDS011;9818;48.382;10.850;2022-11-23T02:00:47;3.70;;;1.33;;
19364;SDS011;9818;48.382;10.850;2022-11-23T02:03:16;2.17;;;1.70;;
19364;SDS011;9818;48.382;10.850;2022-11-23T02:05:46;2.53;;;1.47;;
19364;SDS011;9818;48.382;10.850;2022-11-23T02:08:20;1.87;;;1.40;;
19364;SDS011;9818;48.382;10.850;2022-11-23T02:10:49;1.30;;;1.07;;
19364;SDS011;9818;48.382;10.850;2022-11-23T02:13:18;1.83;;;1.23;;
19364;SDS011;9818;48.382;10.850;2022-11-23T02:15:47;1.30;;;1.17;;
19364;SDS011;9818;48.382;10.850;2022-11-23T02:18:18;1.57;;;1.37;;
19364;SDS011;9818;48.382;10.850;2022-11-23T02:20:49;2.13;;;1.20;;
19364;SDS011;9818;48.382;10.850;2022-11-23T02:23:23;2.30;;;1.40;;
19364;SDS011;9818;48.382;10.850;2022-11-23T02:26:03;2.90;;;1.20;;
19364;SDS011;9818;48.382;10.850;2022-11-23T02:28:35;3.27;;;1.50;;
19364;SDS011;9818;48.382;10.850;2022-11-23T02:31:08;1.70;;;1.23;;
19364;SDS011;9818;48.382;10.850;2022-11-23T02:33:37;2.33;;;1.43;;
19364;SDS011;9818;48.382;10.850;2022-11-23T02:38:57;1.97;;;1.30;;
19364;SDS011;9818;48.382;10.850;2022-11-23T02:41:35;2.07;;;1.43;;
19364;SDS011;9818;48.382;10.850;2022-11-23T02:44:05;1.80;;;1.30;;
19364;SDS011;9818;48.382;10.850;2022-11-23T02:46:41;1.50;;;1.30;;
19364;SDS011;9818;48.382;10.850;2022-11-23T02:49:10;4.13;;;1.40;;
19364;SDS011;9818;48.382;10.850;2022-11-23T02:51:38;1.53;;;1.23;;
19364;SDS011;9818;48.382;10.850;2022-11-23T02:54:07;1.77;;;1.30;;
19364;SDS011;9818;48.382;10.850;2022-11-23T02:56:38;1.10;;;1.00;;
19364;SDS011;9818;48.382;10.850;2022-11-23T02:59:07;1.90;;;1.37;;
19364;SDS011;9818;48.382;10.850;2022-11-23T03:01:36;2.73;;;1.50;;
19364;SDS011;9818;48.382;10.850;2022-11-23T03:04:06;1.20;;;1.10;;
19364;SDS011;9818;48.382;10.850;2022-11-23T03:06:35;2.20;;;1.30;;
19364;SDS011;9818;48.382;10.850;2022-11-23T03:09:04;1.80;;;1.20;;
19364;SDS011;9818;48.382;10.850;2022-11-23T03:11:33;2.30;;;1.10;;
19364;SDS011;9818;48.382;10.850;2022-11-23T03:14:04;1.23;;;1.07;;
19364;SDS011;9818;48.382;10.850;2022-11-23T03:16:33;2.50;;;1.30;;
19364;SDS011;9818;48.382;10.850;2022-11-23T03:19:01;2.33;;;1.40;;
19364;SDS011;9818;48.382;10.850;2022-11-23T03:21:30;1.30;;;1.10;;
19364;SDS011;9818;48.382;10.850;2022-11-23T03:23:59;1.60;;;1.50;;
19364;SDS011;9818;48.382;10.850;2022-11-23T03:26:27;1.47;;;1.10;;
19364;SDS011;9818;48.382;10.850;2022-11-23T03:28:56;1.33;;;1.00;;
19364;SDS011;9818;48.382;10.850;2022-11-23T03:31:28;1.60;;;1.20;;
19364;SDS011;9818;48.382;10.850;2022-11-23T03:33:57;1.70;;;1.33;;
19364;SDS011;9818;48.382;10.850;2022-11-23T03:36:25;2.37;;;1.30;;
19364;SDS011;9818;48.382;10.850;2022-11-23T03:38:54;1.60;;;1.20;;
19364;SDS011;9818;48.382;10.850;2022-11-23T03:41:23;1.17;;;1.07;;
19364;SDS011;9818;48.382;10.850;2022-11-23T03:43:51;1.60;;;1.00;;
19364;SDS011;9818;48.382;10.850;2022-11-23T03:46:20;2.37;;;1.33;;
19364;SDS011;9818;48.382;10.850;2022-11-23T03:48:51;1.80;;;1.50;;
19364;SDS011;9818;48.382;10.850;2022-11-23T03:51:20;1.40;;;1.30;;
19364;SDS011;9818;48.382;10.850;2022-11-23T03:53:49;1.63;;;1.50;;
19364;SDS011;9818;48.382;10.850;2022-11-23T03:56:17;2.93;;;1.43;;
19364;SDS011;9818;48.382;10.850;2022-11-23T03:58:46;2.10;;;1.50;;
19364;SDS011;9818;48.382;10.850;2022-11-23T04:01:15;1.67;;;1.20;;
19364;SDS011;9818;48.382;10.850;2022-11-23T04:03:44;1.83;;;1.40;;
19364;SDS011;9818;48.382;10.850;2022-11-23T04:06:15;1.30;;;1.20;;
19364;SDS011;9818;48.382;10.850;2022-11-23T04:08:44;2.03;;;1.37;;
19364;SDS011;9818;48.382;10.850;2022-11-23T04:11:12;1.43;;;1.20;;
19364;SDS011;9818;48.382;10.850;2022-11-23T04:13:41;2.60;;;1.30;;
19364;SDS011;9818;48.382;10.850;2022-11-23T04:16:10;1.10;;;1.00;;
19364;SDS011;9818;48.382;10.850;2022-11-23T04:18:38;1.33;;;1.20;;
19364;SDS011;9818;48.382;10.850;2022-11-23T04:21:07;2.93;;;1.23;;
19364;SDS011;9818;48.382;10.850;2022-11-23T04:23:39;1.80;;;1.20;;
19364;SDS011;9818;48.382;10.850;2022-11-23T04:26:07;2.87;;;1.60;;
19364;SDS011;9818;48.382;10.850;2022-11-23T04:28:36;1.47;;;1.20;;
19364;SDS011;9818;48.382;10.850;2022-11-23T04:31:04;1.57;;;1.47;;
19364;SDS011;9818;48.382;10.850;2022-11-23T04:33:33;4.13;;;1.70;;
19364;SDS011;9818;48.382;10.850;2022-11-23T04:36:02;2.23;;;1.80;;
19364;SDS011;9818;48.382;10.850;2022-11-23T04:38:32;2.97;;;1.47;;
19364;SDS011;9818;48.382;10.850;2022-11-23T04:41:03;2.93;;;1.40;;
19364;SDS011;9818;48.382;10.850;2022-11-23T04:43:32;2.80;;;1.50;;
19364;SDS011;9818;48.382;10.850;2022-11-23T04:46:00;1.97;;;1.40;;
19364;SDS011;9818;48.382;10.850;2022-11-23T04:48:29;3.43;;;1.53;;
19364;SDS011;9818;48.382;10.850;2022-11-23T04:50:58;3.63;;;1.37;;
19364;SDS011;9818;48.382;10.850;2022-11-23T04:53:27;1.67;;;1.50;;
19364;SDS011;9818;48.382;10.850;2022-11-23T04:55:55;1.97;;;1.50;;
19364;SDS011;9818;48.382;10.850;2022-11-23T04:58:27;1.80;;;1.53;;
19364;SDS011;9818;48.382;10.850;2022-11-23T05:00:56;2.20;;;1.63;;
19364;SDS011;9818;48.382;10.850;2022-11-23T05:03:24;5.97;;;2.43;;
19364;SDS011;9818;48.382;10.850;2022-11-23T05:05:56;4.60;;;2.57;;
19364;SDS011;9818;48.382;10.850;2022-11-23T05:08:25;5.77;;;2.77;;
19364;SDS011;9818;48.382;10.850;2022-11-23T05:10:54;4.17;;;2.77;;
19364;SDS011;9818;48.382;10.850;2022-11-23T05:13:23;7.17;;;3.60;;
19364;SDS011;9818;48.382;10.850;2022-11-23T05:15:54;5.40;;;3.00;;
19364;SDS011;9818;48.382;10.850;2022-11-23T05:18:23;4.63;;;2.93;;
19364;SDS011;9818;48.382;10.850;2022-11-23T05:20:52;4.60;;;2.97;;
19364;SDS011;9818;48.382;10.850;2022-11-23T05:23:21;4.80;;;2.90;;
19364;SDS011;9818;48.382;10.850;2022-11-23T05:25:49;2.50;;;2.30;;
19364;SDS011;9818;48.382;10.850;2022-11-23T05:28:18;4.77;;;2.30;;
19364;SDS011;9818;48.382;10.850;2022-11-23T05:30:48;4.47;;;2.53;;
19364;SDS011;9818;48.382;10.850;2022-11-23T05:33:20;3.73;;;2.30;;
19364;SDS011;9818;48.382;10.850;2022-11-23T05:35:49;3.70;;;2.13;;
19364;SDS011;9818;48.382;10.850;2022-11-23T05:38:18;4.57;;;2.10;;
19364;SDS011;9818;48.382;10.850;2022-11-23T05:40:46;4.93;;;2.10;;
19364;SDS011;9818;48.382;10.850;2022-11-23T05:43:15;2.13;;;1.77;;
19364;SDS011;9818;48.382;10.850;2022-11-23T05:45:44;4.37;;;1.83;;
19364;SDS011;9818;48.382;10.850;2022-11-23T05:48:12;1.97;;;1.70;;
19364;SDS011;9818;48.382;10.850;2022-11-23T05:50:43;3.53;;;1.77;;
19364;SDS011;9818;48.382;10.850;2022-11-23T05:53:12;3.47;;;1.90;;
19364;SDS011;9818;48.382;10.850;2022-11-23T05:55:41;2.80;;;1.60;;
19364;SDS011;9818;48.382;10.850;2022-11-23T05:58:10;3.33;;;2.10;;
19364;SDS011;9818;48.382;10.850;2022-11-23T06:00:38;4.27;;;2.63;;
19364;SDS011;9818;48.382;10.850;2022-11-23T06:03:07;4.13;;;2.23;;
19364;SDS011;9818;48.382;10.850;2022-11-23T06:05:36;4.20;;;2.70;;
19364;SDS011;9818;48.382;10.850;2022-11-23T06:08:07;3.37;;;2.50;;
19364;SDS011;9818;48.382;10.850;2022-11-23T06:10:35;2.37;;;2.17;;
19364;SDS011;9818;48.382;10.850;2022-11-23T06:13:04;2.93;;;2.20;;
19364;SDS011;9818;48.382;10.850;2022-11-23T06:15:33;2.57;;;2.03;;
19364;SDS011;9818;48.382;10.850;2022-11-23T06:18:02;1.67;;;1.57;;
19364;SDS011;9818;48.382;10.850;2022-11-23T06:20:31;3.10;;;1.90;;
19364;SDS011;9818;48.382;10.850;2022-11-23T06:23:00;3.93;;;1.60;;
19364;SDS011;9818;48.382;10.850;2022-11-23T06:25:31;2.20;;;1.60;;
19364;SDS011;9818;48.382;10.850;2022-11-23T06:28:02;3.17;;;1.67;;
19364;SDS011;9818;48.382;10.850;2022-11-23T06:30:31;2.67;;;2.23;;
19364;SDS011;9818;48.382;10.850;2022-11-23T06:33:01;2.97;;;2.50;;
19364;SDS011;9818;48.382;10.850;2022-11-23T06:35:30;2.33;;;1.97;;
19364;SDS011;9818;48.382;10.850;2022-11-23T06:37:58;4.00;;;2.10;;
19364;SDS011;9818;48.382;10.850;2022-11-23T06:40:27;3.80;;;2.10;;
19364;SDS011;9818;48.382;10.850;2022-11-23T06:42:59;2.20;;;1.90;;
19364;SDS011;9818;48.382;10.850;2022-11-23T06:45:28;3.03;;;2.27;;
19364;SDS011;9818;48.382;10.850;2022-11-23T06:47:56;4.33;;;2.77;;
19364;SDS011;9818;48.382;10.850;2022-11-23T06:50:25;3.63;;;2.30;;
19364;SDS011;9818;48.382;10.850;2022-11-23T06:52:54;2.60;;;2.33;;
19364;SDS011;9818;48.382;10.850;2022-11-23T06:55:23;3.43;;;2.50;;
19364;SDS011;9818;48.382;10.850;2022-11-23T06:57:54;2.13;;;1.97;;
19364;SDS011;9818;48.382;10.850;2022-11-23T07:00:23;3.20;;;2.20;;
19364;SDS011;9818;48.382;10.850;2022-11-23T07:02:52;2.03;;;1.87;;
19364;SDS011;9818;48.382;10.850;2022-11-23T07:05:22;4.10;;;1.80;;
19364;SDS011;9818;48.382;10.850;2022-11-23T07:07:51;3.47;;;2.20;;
19364;SDS011;9818;48.382;10.850;2022-11-23T07:10:20;3.70;;;2.00;;
19364;SDS011;9818;48.382;10.850;2022-11-23T07:12:49;3.80;;;2.27;;
19364;SDS011;9818;48.382;10.850;2022-11-23T07:15:21;3.87;;;1.90;;
19364;SDS011;9818;48.382;10.850;2022-11-23T07:17:49;2.37;;;2.17;;
19364;SDS011;9818;48.382;10.850;2022-11-23T07:20:18;4.07;;;2.17;;
19364;SDS011;9818;48.382;10.850;2022-11-23T07:22:47;3.57;;;2.03;;
19364;SDS011;9818;48.382;10.850;2022-11-23T07:25:15;4.13;;;2.37;;
19364;SDS011;9818;48.382;10.850;2022-11-23T07:27:44;3.50;;;2.47;;
19364;SDS011;9818;48.382;10.850;2022-11-23T07:30:13;4.57;;;2.40;;
19364;SDS011;9818;48.382;10.850;2022-11-23T07:32:45;3.27;;;2.30;;
19364;SDS011;9818;48.382;10.850;2022-11-23T07:35:14;4.33;;;2.40;;
19364;SDS011;9818;48.382;10.850;2022-11-23T07:37:43;3.47;;;2.37;;
19364;SDS011;9818;48.382;10.850;2022-11-23T07:40:12;5.80;;;2.70;;
19364;SDS011;9818;48.382;10.850;2022-11-23T07:42:41;2.83;;;2.57;;
19364;SDS011;9818;48.382;10.850;2022-11-23T07:45:10;4.93;;;2.53;;
19364;SDS011;9818;48.382;10.850;2022-11-23T07:47:38;2.97;;;2.37;;
19364;SDS011;9818;48.382;10.850;2022-11-23T07:50:11;3.23;;;2.63;;
19364;SDS011;9818;48.382;10.850;2022-11-23T07:52:40;3.30;;;2.60;;
19364;SDS011;9818;48.382;10.850;2022-11-23T07:55:09;5.57;;;2.77;;
19364;SDS011;9818;48.382;10.850;2022-11-23T07:57:37;4.80;;;2.53;;
19364;SDS011;9818;48.382;10.850;2022-11-23T08:00:07;3.13;;;2.50;;
19364;SDS011;9818;48.382;10.850;2022-11-23T08:02:37;4.67;;;2.67;;
19364;SDS011;9818;48.382;10.850;2022-11-23T08:05:06;6.63;;;3.10;;
19364;SDS011;9818;48.382;10.850;2022-11-23T08:07:37;5.73;;;3.20;;
19364;SDS011;9818;48.382;10.850;2022-11-23T08:10:06;3.50;;;2.63;;
19364;SDS011;9818;48.382;10.850;2022-11-23T08:12:36;3.83;;;2.90;;
19364;SDS011;9818;48.382;10.850;2022-11-23T08:15:05;7.93;;;2.60;;
19364;SDS011;9818;48.382;10.850;2022-11-23T08:17:34;4.17;;;2.50;;
19364;SDS011;9818;48.382;10.850;2022-11-23T08:20:03;4.07;;;3.00;;
19364;SDS011;9818;48.382;10.850;2022-11-23T08:22:35;4.43;;;3.07;;
19364;SDS011;9818;48.382;10.850;2022-11-23T08:25:04;4.53;;;2.93;;
19364;SDS011;9818;48.382;10.850;2022-11-23T08:27:33;3.07;;;2.53;;
19364;SDS011;9818;48.382;10.850;2022-11-23T08:30:02;3.60;;;2.70;;
19364;SDS011;9818;48.382;10.850;2022-11-23T08:32:31;4.00;;;2.87;;
19364;SDS011;9818;48.382;10.850;2022-11-23T08:35:00;3.77;;;2.87;;
19364;SDS011;9818;48.382;10.850;2022-11-23T08:37:28;5.67;;;3.10;;
19364;SDS011;9818;48.382;10.850;2022-11-23T09:02:20;3.40;;;2.40;;
19364;SDS011;9818;48.382;10.850;2022-11-23T09:12:14;4.90;;;2.00;;
19364;SDS011;9818;48.382;10.850;2022-11-23T09:14:45;4.23;;;2.03;;
19364;SDS011;9818;48.382;10.850;2022-11-23T09:17:14;4.03;;;2.30;;
19364;SDS011;9818;48.382;10.850;2022-11-23T09:19:43;2.73;;;1.83;;
19364;SDS011;9818;48.382;10.850;2022-11-23T09:22:11;3.30;;;2.00;;
19364;SDS011;9818;48.382;10.850;2022-11-23T09:27:08;1.90;;;1.70;;
19364;SDS011;9818;48.382;10.850;2022-11-23T09:29:37;3.30;;;1.50;;
19364;SDS011;9818;48.382;10.850;2022-11-23T09:44:44;3.47;;;1.50;;
19364;SDS011;9818;48.382;10.850;2022-11-23T09:47:32;2.70;;;1.83;;
19364;SDS011;9818;48.382;10.850;2022-11-23T09:50:10;2.73;;;1.50;;
19364;SDS011;9818;48.382;10.850;2022-11-23T09:52:45;1.70;;;1.47;;
19364;SDS011;9818;48.382;10.850;2022-11-23T09:55:18;2.90;;;1.70;;
19364;SDS011;9818;48.382;10.850;2022-11-23T09:57:53;2.87;;;1.60;;
19364;SDS011;9818;48.382;10.850;2022-11-23T10:00:27;2.97;;;1.50;;
19364;SDS011;9818;48.382;10.850;2022-11-23T10:03:05;2.27;;;1.53;;
19364;SDS011;9818;48.382;10.850;2022-11-23T10:05:38;2.97;;;1.50;;
19364;SDS011;9818;48.382;10.850;2022-11-23T10:08:09;4.73;;;1.50;;
19364;SDS011;9818;48.382;10.850;2022-11-23T10:10:44;2.93;;;1.50;;
19364;SDS011;9818;48.382;10.850;2022-11-23T10:13:22;3.17;;;1.50;;
19364;SDS011;9818;48.382;10.850;2022-11-23T10:16:03;4.20;;;1.50;;
19364;SDS011;9818;48.382;10.850;2022-11-23T10:31:22;2.40;;;1.47;;
19364;SDS011;9818;48.382;10.850;2022-11-23T10:33:58;4.13;;;1.40;;
19364;SDS011;9818;48.382;10.850;2022-11-23T10:36:35;2.50;;;1.30;;
19364;SDS011;9818;48.382;10.850;2022-11-23T10:39:09;2.70;;;1.77;;
19364;SDS011;9818;48.382;10.850;2022-11-23T10:41:44;2.37;;;1.20;;
19364;SDS011;9818;48.382;10.850;2022-11-23T10:44:17;3.93;;;1.60;;
19364;SDS011;9818;48.382;10.850;2022-11-23T10:46:57;2.33;;;1.13;;
